createdAt,value
2019-02-27T00:01:01.612Z,20.10
2019-02-27T00:03:34.996Z,25.43
2019-02-27T00:06:06.799Z,26.07
2019-02-27T00:08:38.470Z,25.53
2019-02-27T00:11:12.364Z,26.57
2019-02-27T00:13:43.575Z,26.20
2019-02-27T00:16:15.257Z,24.33
2019-02-27T00:18:46.922Z,24.40
2019-02-27T00:21:18.616Z,29.20
2019-02-27T00:23:50.289Z,34.93
2019-02-27T00:26:22.010Z,40.50
2019-02-27T00:28:55.970Z,43.73
2019-02-27T00:31:27.306Z,51.43
2019-02-27T00:33:59.820Z,46.57
2019-02-27T00:36:33.233Z,45.37
2019-02-27T00:39:05.819Z,48.67
2019-02-27T00:41:39.033Z,44.73
2019-02-27T00:44:10.714Z,46.23
2019-02-27T00:46:43.958Z,49.57
2019-02-27T00:49:16.666Z,48.03
2019-02-27T00:51:48.340Z,50.47
2019-02-27T00:54:20.018Z,56.13
2019-02-27T00:56:51.695Z,57.43
2019-02-27T00:59:23.301Z,51.83
2019-02-27T01:01:55.164Z,49.37
2019-02-27T01:04:28.310Z,48.70
2019-02-27T01:07:00.009Z,52.30
2019-02-27T01:09:31.921Z,54.70
2019-02-27T01:12:03.548Z,54.50
2019-02-27T01:14:37.183Z,54.70
2019-02-27T01:17:08.635Z,50.10
2019-02-27T01:19:42.542Z,47.90
2019-02-27T01:22:13.575Z,35.63
2019-02-27T01:24:45.314Z,36.07
2019-02-27T01:27:17.051Z,43.47
2019-02-27T01:29:50.886Z,39.63
2019-02-27T01:32:21.985Z,42.43
2019-02-27T01:34:53.586Z,38.87
2019-02-27T01:37:25.221Z,35.80
2019-02-27T01:39:56.983Z,31.63
2019-02-27T01:42:31.861Z,32.13
2019-02-27T01:45:02.222Z,32.73
2019-02-27T01:47:36.120Z,35.53
2019-02-27T01:50:28.178Z,35.10
2019-02-27T01:53:00.010Z,34.63
2019-02-27T01:55:31.943Z,34.47
2019-02-27T01:58:03.627Z,32.70
2019-02-27T02:00:35.255Z,32.40
2019-02-27T02:03:06.943Z,35.63
2019-02-27T02:05:38.619Z,33.53
2019-02-27T02:08:13.638Z,32.43
2019-02-27T02:10:43.697Z,34.70
2019-02-27T02:13:31.479Z,34.77
2019-02-27T02:16:34.155Z,33.47
2019-02-27T02:19:43.780Z,34.43
2019-02-27T02:22:41.273Z,32.23
2019-02-27T02:26:01.347Z,33.07
2019-02-27T02:29:21.068Z,33.37
2019-02-27T02:32:03.606Z,31.63
2019-02-27T02:35:07.574Z,33.40
2019-02-27T02:38:17.716Z,32.17
2019-02-27T02:41:16.932Z,31.10
2019-02-27T02:44:31.068Z,29.30
2019-02-27T02:47:35.917Z,28.83
2019-02-27T02:50:44.296Z,23.60
2019-02-27T02:53:43.130Z,24.57
2019-02-27T02:56:49.793Z,25.43
2019-02-27T02:59:52.413Z,26.97
2019-02-27T03:02:50.530Z,26.73
2019-02-27T03:06:02.258Z,27.23
2019-02-27T03:08:59.044Z,27.80
2019-02-27T03:11:55.824Z,27.33
2019-02-27T03:14:38.975Z,27.17
2019-02-27T03:17:53.579Z,28.07
2019-02-27T03:20:55.800Z,26.33
2019-02-27T03:23:50.839Z,27.17
2019-02-27T03:27:12.362Z,30.47
2019-02-27T03:30:34.242Z,32.73
2019-02-27T03:33:11.236Z,29.73
2019-02-27T03:36:28.770Z,31.07
2019-02-27T03:39:28.127Z,30.10
2019-02-27T03:42:34.136Z,32.93
2019-02-27T03:45:34.883Z,36.77
2019-02-27T03:48:44.228Z,36.37
2019-02-27T03:52:08.797Z,38.03
2019-02-27T03:55:09.122Z,35.17
2019-02-27T03:58:00.334Z,39.60
2019-02-27T04:00:53.945Z,38.47
2019-02-27T04:04:14.407Z,36.20
2019-02-27T04:07:24.325Z,38.90
2019-02-27T04:09:56.428Z,43.80
2019-02-27T04:12:28.241Z,43.03
2019-02-27T04:15:00.055Z,40.77
2019-02-27T04:17:30.313Z,39.03
2019-02-27T04:20:02.012Z,36.87
2019-02-27T04:22:36.816Z,31.40
2019-02-27T04:25:07.402Z,28.73
2019-02-27T04:27:39.025Z,25.63
2019-02-27T04:30:14.792Z,26.73
2019-02-27T04:32:47.739Z,37.60
2019-02-27T04:35:17.431Z,26.93
2019-02-27T04:37:54.116Z,24.40
2019-02-27T04:40:23.600Z,26.37
2019-02-27T04:42:57.072Z,26.07
2019-02-27T04:45:28.847Z,26.50
2019-02-27T04:48:00.526Z,27.07
2019-02-27T04:50:32.238Z,27.33
2019-02-27T04:53:03.860Z,29.90
2019-02-27T04:55:35.483Z,35.70
2019-02-27T04:58:09.106Z,40.47
2019-02-27T05:00:40.425Z,93.63
2019-02-27T05:03:12.096Z,85.73
2019-02-27T05:05:45.218Z,70.37
2019-02-27T05:08:17.186Z,109.37
2019-02-27T05:10:49.078Z,58.73
2019-02-27T05:13:21.453Z,41.10
2019-02-27T05:15:53.117Z,42.50
2019-02-27T05:18:29.301Z,30.47
2019-02-27T05:20:58.126Z,34.53
2019-02-27T05:23:30.912Z,30.70
2019-02-27T05:26:03.545Z,28.00
2019-02-27T05:28:35.623Z,52.97
2019-02-27T05:31:07.258Z,34.20
2019-02-27T05:33:39.887Z,29.20
2019-02-27T05:36:11.603Z,110.40
2019-02-27T05:38:43.532Z,60.43
2019-02-27T05:41:15.882Z,65.77
2019-02-27T05:43:48.470Z,28.30
2019-02-27T05:46:20.330Z,28.73
2019-02-27T05:48:53.359Z,34.40
2019-02-27T05:51:25.240Z,34.70
2019-02-27T05:53:58.506Z,29.93
2019-02-27T05:56:30.737Z,31.87
2019-02-27T05:59:02.356Z,25.57
2019-02-27T06:01:37.807Z,22.33
2019-02-27T06:04:07.273Z,22.20
2019-02-27T06:06:38.894Z,21.07
2019-02-27T06:09:10.988Z,21.53
2019-02-27T06:11:42.594Z,20.67
2019-02-27T06:14:14.348Z,21.10
2019-02-27T06:16:45.988Z,19.33
2019-02-27T06:19:17.669Z,18.67
2019-02-27T06:21:49.289Z,20.10
2019-02-27T06:24:20.889Z,21.43
2019-02-27T06:26:52.503Z,22.13
2019-02-27T06:29:24.197Z,24.13
2019-02-27T06:31:56.174Z,28.80
2019-02-27T06:34:28.075Z,25.40
2019-02-27T06:37:00.013Z,22.37
2019-02-27T06:39:34.224Z,23.10
2019-02-27T06:42:05.341Z,25.03
2019-02-27T06:44:39.252Z,23.20
2019-02-27T06:47:10.321Z,21.73
2019-02-27T06:49:41.932Z,21.07
2019-02-27T06:52:13.623Z,22.57
2019-02-27T06:54:45.227Z,20.87
2019-02-27T06:57:16.938Z,21.23
2019-02-27T06:59:48.558Z,20.63
2019-02-27T07:02:21.680Z,20.83
2019-02-27T07:04:53.546Z,22.13
2019-02-27T07:07:25.226Z,23.27
2019-02-27T07:09:57.092Z,23.20
2019-02-27T07:12:29.050Z,21.00
2019-02-27T07:15:00.662Z,23.70
2019-02-27T07:17:32.497Z,23.50
2019-02-27T07:20:04.186Z,23.93
2019-02-27T07:22:35.878Z,23.47
2019-02-27T07:25:07.918Z,23.77
2019-02-27T07:27:39.615Z,24.80
2019-02-27T07:30:13.987Z,25.57
2019-02-27T07:32:45.929Z,38.20
2019-02-27T07:35:17.542Z,41.00
2019-02-27T07:37:49.244Z,34.73
2019-02-27T07:40:20.937Z,27.63
2019-02-27T07:42:52.712Z,36.47
2019-02-27T07:45:24.355Z,26.50
2019-02-27T07:47:58.087Z,30.60
2019-02-27T07:50:32.697Z,28.70
2019-02-27T07:53:05.641Z,33.07
2019-02-27T07:55:37.714Z,24.13
2019-02-27T07:58:09.875Z,24.70
2019-02-27T08:00:47.161Z,25.80
2019-02-27T08:03:23.921Z,28.17
2019-02-27T08:05:56.062Z,26.30
2019-02-27T08:08:28.091Z,31.97
2019-02-27T08:11:00.273Z,27.80
2019-02-27T08:13:32.038Z,31.90
2019-02-27T08:16:03.984Z,24.60
2019-02-27T08:18:37.646Z,28.70
2019-02-27T08:21:10.052Z,25.67
2019-02-27T08:23:41.663Z,24.03
2019-02-27T08:26:13.330Z,29.87
2019-02-27T08:28:47.669Z,40.80
2019-02-27T08:31:19.727Z,25.60
2019-02-27T08:33:51.505Z,40.77
2019-02-27T08:36:23.347Z,24.23
2019-02-27T08:38:55.977Z,23.83
2019-02-27T08:41:29.188Z,32.90
2019-02-27T08:44:03.352Z,25.23
2019-02-27T08:46:37.093Z,28.80
2019-02-27T08:49:10.667Z,32.00
2019-02-27T08:51:43.006Z,27.00
2019-02-27T08:54:14.633Z,24.57
2019-02-27T08:56:47.247Z,25.27
2019-02-27T08:59:19.931Z,23.67
2019-02-27T09:01:55.711Z,28.77
2019-02-27T09:04:26.308Z,27.43
2019-02-27T09:07:02.167Z,26.00
2019-02-27T09:09:31.508Z,29.23
2019-02-27T09:12:03.241Z,29.70
2019-02-27T09:14:34.966Z,30.90
2019-02-27T09:17:06.623Z,36.00
2019-02-27T09:19:38.227Z,30.27
2019-02-27T09:22:09.914Z,31.13
2019-02-27T09:24:41.606Z,27.90
2019-02-27T09:27:13.214Z,30.53
2019-02-27T09:29:44.858Z,28.43
2019-02-27T09:32:16.474Z,29.10
2019-02-27T09:34:48.079Z,27.33
2019-02-27T09:37:19.682Z,32.97
2019-02-27T09:39:51.390Z,31.03
2019-02-27T09:42:23.075Z,30.93
2019-02-27T09:44:54.778Z,28.00
2019-02-27T09:47:26.515Z,33.17
2019-02-27T09:49:58.318Z,27.30
2019-02-27T09:52:30.756Z,28.30
2019-02-27T09:55:02.480Z,30.27
2019-02-27T09:57:35.346Z,27.27
2019-02-27T10:00:25.939Z,30.87
2019-02-27T10:02:55.959Z,32.00
2019-02-27T10:05:27.750Z,30.67
2019-02-27T10:08:00.336Z,33.03
2019-02-27T10:10:32.144Z,30.43
2019-02-27T10:13:04.158Z,32.20
2019-02-27T10:15:35.920Z,29.67
2019-02-27T10:18:07.742Z,30.43
2019-02-27T10:20:39.435Z,33.83
2019-02-27T10:23:11.086Z,34.50
2019-02-27T10:25:43.611Z,35.00
2019-02-27T10:28:15.896Z,32.37
2019-02-27T10:30:49.934Z,33.40
2019-02-27T10:33:20.886Z,35.93
2019-02-27T10:35:52.548Z,38.63
2019-02-27T10:38:26.109Z,39.20
2019-02-27T10:40:57.550Z,33.10
2019-02-27T10:43:29.241Z,34.17
2019-02-27T10:46:00.945Z,39.40
2019-02-27T10:48:32.609Z,33.13
2019-02-27T10:51:04.258Z,37.27
2019-02-27T10:53:35.948Z,35.57
2019-02-27T10:56:07.814Z,39.10
2019-02-27T10:58:39.693Z,42.73
2019-02-27T11:01:11.314Z,46.80
2019-02-27T11:03:42.994Z,44.50
2019-02-27T11:06:14.596Z,39.60
2019-02-27T11:08:46.412Z,38.00
2019-02-27T11:11:18.051Z,41.73
2019-02-27T11:13:52.115Z,40.37
2019-02-27T11:16:23.224Z,45.47
2019-02-27T11:18:55.115Z,43.70
2019-02-27T11:21:27.083Z,79.43
2019-02-27T11:23:59.002Z,47.73
2019-02-27T11:26:33.225Z,48.03
2019-02-27T11:29:04.046Z,43.53
2019-02-27T11:31:35.750Z,41.33
2019-02-27T11:34:07.861Z,43.30
2019-02-27T11:36:40.183Z,46.27
2019-02-27T11:39:11.866Z,43.77
2019-02-27T11:41:46.077Z,42.07
2019-02-27T11:44:17.156Z,43.57
2019-02-27T11:46:58.442Z,45.67
2019-02-27T11:49:22.088Z,40.70
2019-02-27T11:51:53.985Z,44.43
2019-02-27T11:54:25.894Z,43.00
2019-02-27T11:56:57.608Z,44.87
2019-02-27T11:59:29.329Z,43.47
2019-02-27T12:02:00.942Z,42.87
2019-02-27T12:04:32.612Z,46.87
2019-02-27T12:07:04.242Z,45.77
2019-02-27T12:09:35.937Z,44.37
2019-02-27T12:12:10.393Z,44.30
2019-02-27T12:14:41.868Z,43.97
2019-02-27T12:17:13.569Z,44.37
2019-02-27T12:19:45.343Z,43.40
2019-02-27T12:22:17.020Z,44.83
2019-02-27T12:24:50.345Z,45.93
2019-02-27T12:27:45.054Z,46.23
2019-02-27T12:29:55.485Z,46.43
2019-02-27T12:32:27.260Z,47.33
2019-02-27T12:34:59.281Z,45.33
2019-02-27T12:37:34.759Z,45.47
2019-02-27T12:40:06.035Z,47.60
2019-02-27T12:42:42.526Z,44.77
2019-02-27T12:45:13.780Z,46.53
2019-02-27T12:47:45.487Z,88.57
2019-02-27T12:50:18.890Z,61.57
2019-02-27T12:52:50.551Z,52.27
2019-02-27T12:55:22.180Z,78.07
2019-02-27T12:57:53.867Z,49.57
2019-02-27T13:00:27.535Z,50.13
2019-02-27T13:02:59.418Z,48.23
2019-02-27T13:05:31.138Z,50.73
2019-02-27T13:08:02.763Z,48.37
2019-02-27T13:10:34.445Z,51.43
2019-02-27T13:13:06.123Z,51.80
2019-02-27T13:15:38.316Z,50.07
2019-02-27T13:18:11.155Z,49.37
2019-02-27T13:20:43.066Z,48.90
2019-02-27T13:23:16.146Z,50.73
2019-02-27T13:25:47.752Z,48.80
2019-02-27T13:28:19.375Z,48.50
2019-02-27T13:30:51.015Z,49.47
2019-02-27T13:33:22.624Z,51.47
2019-02-27T13:35:56.706Z,48.63
2019-02-27T13:38:27.644Z,52.67
2019-02-27T13:40:59.335Z,50.23
2019-02-27T13:43:30.967Z,49.60
2019-02-27T13:46:02.603Z,51.10
2019-02-27T13:48:34.225Z,51.17
2019-02-27T13:51:05.894Z,46.50
2019-02-27T13:53:37.587Z,48.83
2019-02-27T13:56:09.388Z,50.03
2019-02-27T13:58:41.391Z,49.73
2019-02-27T14:01:16.373Z,51.13
2019-02-27T14:03:49.586Z,49.57
2019-02-27T14:06:21.546Z,48.93
2019-02-27T14:08:53.710Z,50.27
2019-02-27T14:11:26.265Z,49.37
2019-02-27T14:14:00.520Z,49.50
2019-02-27T14:16:34.733Z,49.53
2019-02-27T14:19:05.862Z,49.70
2019-02-27T14:21:39.633Z,51.33
2019-02-27T14:24:20.198Z,50.30
2019-02-27T14:26:49.604Z,51.73
2019-02-27T14:29:21.497Z,55.67
2019-02-27T14:31:53.233Z,54.53
2019-02-27T14:34:27.395Z,53.40
2019-02-27T14:36:58.566Z,52.10
2019-02-27T14:39:30.524Z,51.67
2019-02-27T14:42:02.414Z,58.37
2019-02-27T14:44:34.196Z,50.67
2019-02-27T14:47:06.016Z,50.47
2019-02-27T14:49:37.746Z,54.57
2019-02-27T14:52:14.003Z,50.63
2019-02-27T14:54:42.848Z,49.77
2019-02-27T14:57:16.067Z,49.30
2019-02-27T14:59:47.924Z,46.87
2019-02-27T15:02:22.172Z,48.40
2019-02-27T15:04:52.976Z,45.63
2019-02-27T15:07:24.808Z,49.43
2019-02-27T15:09:57.112Z,46.20
2019-02-27T15:12:30.258Z,43.20
2019-02-27T15:15:02.226Z,45.30
2019-02-27T15:17:35.704Z,42.27
2019-02-27T15:20:08.203Z,43.73
2019-02-27T15:22:40.472Z,42.23
2019-02-27T15:25:13.986Z,43.23
2019-02-27T15:27:45.950Z,41.60
2019-02-27T15:30:19.838Z,42.47
2019-02-27T15:32:51.862Z,42.33
2019-02-27T15:35:23.792Z,42.17
2019-02-27T15:37:55.904Z,41.83
2019-02-27T15:40:29.622Z,47.33
2019-02-27T15:43:11.025Z,44.20
2019-02-27T15:45:36.970Z,49.73
2019-02-27T15:48:08.746Z,50.07
2019-02-27T15:50:40.467Z,66.30
2019-02-27T15:53:15.005Z,43.60
2019-02-27T15:55:45.567Z,41.33
2019-02-27T15:58:17.331Z,42.57
2019-02-27T16:00:52.349Z,63.90
2019-02-27T16:03:23.004Z,42.17
2019-02-27T16:05:56.387Z,42.20
2019-02-27T16:08:29.138Z,37.67
2019-02-27T16:11:01.016Z,39.90
2019-02-27T16:13:34.681Z,40.20
2019-02-27T16:16:07.255Z,48.27
2019-02-27T16:18:39.359Z,40.13
2019-02-27T16:21:12.140Z,41.50
2019-02-27T16:23:43.962Z,41.50
2019-02-27T16:26:15.604Z,40.77
2019-02-27T16:28:48.965Z,38.13
2019-02-27T16:31:20.634Z,36.63
2019-02-27T16:33:52.268Z,37.00
2019-02-27T16:36:23.909Z,36.43
2019-02-27T16:38:58.346Z,36.00
2019-02-27T16:41:30.387Z,44.37
2019-02-27T16:44:02.506Z,43.80
2019-02-27T16:46:34.497Z,38.30
2019-02-27T16:49:09.841Z,53.30
2019-02-27T16:51:40.824Z,43.67
2019-02-27T16:54:12.655Z,40.00
2019-02-27T16:56:47.558Z,36.37
2019-02-27T16:59:19.312Z,39.03
2019-02-27T17:01:51.226Z,42.73
2019-02-27T17:04:23.435Z,39.20
2019-02-27T17:06:56.309Z,37.47
2019-02-27T17:09:28.472Z,39.70
2019-02-27T17:12:00.378Z,45.13
2019-02-27T17:14:32.444Z,47.03
2019-02-27T17:17:04.552Z,41.83
2019-02-27T17:19:37.393Z,52.67
2019-02-27T17:22:10.958Z,45.40
2019-02-27T17:24:43.490Z,43.57
2019-02-27T17:27:16.504Z,54.80
2019-02-27T17:29:48.538Z,44.23
2019-02-27T17:32:20.462Z,41.07
2019-02-27T17:34:52.199Z,45.73
2019-02-27T17:37:23.931Z,48.40
2019-02-27T17:39:55.666Z,43.73
2019-02-27T17:42:27.533Z,43.00
2019-02-27T17:45:00.493Z,44.30
2019-02-27T17:47:32.459Z,38.63
2019-02-27T17:50:04.473Z,38.93
2019-02-27T17:52:36.418Z,37.80
2019-02-27T17:55:09.573Z,40.30
2019-02-27T17:57:42.075Z,39.10
2019-02-27T18:00:16.830Z,41.00
2019-02-27T18:02:48.707Z,41.03
2019-02-27T18:05:22.379Z,43.67
2019-02-27T18:07:53.708Z,43.37
2019-02-27T18:10:25.649Z,52.73
2019-02-27T18:12:58.877Z,60.00
2019-02-27T18:15:30.831Z,48.70
2019-02-27T18:18:02.541Z,48.27
2019-02-27T18:20:34.289Z,48.80
2019-02-27T18:23:06.116Z,48.30
2019-02-27T18:25:41.164Z,57.27
2019-02-27T18:28:11.992Z,55.83
2019-02-27T18:30:44.038Z,49.97
2019-02-27T18:33:17.523Z,53.33
2019-02-27T18:35:51.589Z,45.63
2019-02-27T18:38:27.537Z,44.83
2019-02-27T18:40:57.071Z,44.57
2019-02-27T18:43:30.117Z,41.83
2019-02-27T18:46:02.596Z,42.53
2019-02-27T18:48:34.301Z,39.17
2019-02-27T18:51:06.132Z,38.30
2019-02-27T18:53:37.887Z,37.53
2019-02-27T18:56:15.306Z,36.40
2019-02-27T18:58:47.157Z,34.50
2019-02-27T19:01:19.641Z,36.57
2019-02-27T19:03:51.445Z,36.60
2019-02-27T19:06:23.136Z,38.47
2019-02-27T19:08:54.829Z,37.70
2019-02-27T19:11:26.649Z,44.23
2019-02-27T19:13:58.347Z,46.57
2019-02-27T19:16:29.971Z,56.60
2019-02-27T19:19:01.616Z,53.13
2019-02-27T19:21:34.646Z,49.80
2019-02-27T19:24:06.762Z,48.03
2019-02-27T19:26:38.488Z,44.50
2019-02-27T19:29:10.135Z,37.47
2019-02-27T19:31:41.772Z,37.13
2019-02-27T19:34:13.492Z,39.70
2019-02-27T19:36:45.111Z,38.83
2019-02-27T19:39:18.280Z,36.97
2019-02-27T19:41:50.277Z,36.27
2019-02-27T19:44:21.982Z,36.13
2019-02-27T19:46:53.890Z,34.97
2019-02-27T19:49:25.572Z,32.97
2019-02-27T19:51:57.208Z,34.43
2019-02-27T19:54:28.899Z,31.73
2019-02-27T19:57:00.667Z,36.73
2019-02-27T19:59:33.745Z,31.70
2019-02-27T20:02:05.371Z,34.63
2019-02-27T20:04:37.176Z,33.00
2019-02-27T20:07:08.830Z,32.13
2019-02-27T20:09:40.781Z,32.17
2019-02-27T20:12:12.810Z,32.37
2019-02-27T20:14:45.887Z,30.57
2019-02-27T20:17:19.530Z,30.73
2019-02-27T20:19:51.563Z,31.70
2019-02-27T20:22:23.175Z,32.53
2019-02-27T20:24:54.805Z,32.93
2019-02-27T20:27:26.906Z,34.00
2019-02-27T20:29:58.885Z,35.27
2019-02-27T20:32:31.298Z,35.60
2019-02-27T20:35:03.015Z,39.90
2019-02-27T20:37:37.116Z,39.33
2019-02-27T20:40:08.341Z,43.00
2019-02-27T20:42:40.144Z,37.73
2019-02-27T20:45:15.652Z,41.27
2019-02-27T20:47:47.356Z,38.63
2019-02-27T20:50:34.439Z,39.47
2019-02-27T20:52:58.412Z,38.97
2019-02-27T20:55:30.940Z,34.47
2019-02-27T20:58:03.421Z,34.27
2019-02-27T21:00:36.554Z,35.03
2019-02-27T21:03:09.936Z,34.97
2019-02-27T21:05:41.997Z,35.93
2019-02-27T21:08:13.765Z,34.70
2019-02-27T21:10:45.365Z,36.33
2019-02-27T21:13:16.990Z,35.53
2019-02-27T21:15:48.659Z,79.43
2019-02-27T21:18:20.270Z,74.43
2019-02-27T21:20:51.958Z,108.07
2019-02-27T21:23:23.630Z,59.23
2019-02-27T21:25:55.310Z,46.40
2019-02-27T21:28:27.118Z,55.37
2019-02-27T21:30:59.098Z,77.53
2019-02-27T21:33:30.970Z,96.73
2019-02-27T21:36:04.174Z,49.23
2019-02-27T21:38:36.813Z,42.50
2019-02-27T21:41:11.847Z,47.77
2019-02-27T21:43:41.903Z,55.33
2019-02-27T21:46:13.520Z,50.77
2019-02-27T21:48:45.120Z,50.57
2019-02-27T21:51:16.738Z,38.33
2019-02-27T21:53:48.382Z,34.27
2019-02-27T21:56:20.067Z,35.00
2019-02-27T21:58:51.763Z,35.20
2019-02-27T22:01:23.509Z,35.07
2019-02-27T22:03:55.112Z,36.00
2019-02-27T22:06:28.753Z,38.40
2019-02-27T22:09:00.375Z,36.80
2019-02-27T22:11:33.592Z,45.07
2019-02-27T22:14:05.311Z,34.80
2019-02-27T22:16:37.441Z,37.50
2019-02-27T22:19:09.544Z,65.17
2019-02-27T22:21:42.139Z,53.47
2019-02-27T22:24:13.731Z,36.30
2019-02-27T22:26:45.344Z,31.93
2019-02-27T22:29:16.939Z,33.00
2019-02-27T22:31:48.731Z,32.83
2019-02-27T22:34:20.335Z,42.37
2019-02-27T22:36:51.944Z,48.10
2019-02-27T22:39:23.573Z,51.80
2019-02-27T22:41:55.183Z,57.93
2019-02-27T22:44:29.243Z,53.80
2019-02-27T22:47:00.342Z,47.03
2019-02-27T22:49:32.877Z,45.80
2019-02-27T22:52:05.570Z,29.87
2019-02-27T22:54:37.171Z,30.80
2019-02-27T22:57:08.876Z,30.33
2019-02-27T22:59:40.487Z,40.17
2019-02-27T23:02:12.124Z,49.53
2019-02-27T23:04:43.788Z,30.97
2019-02-27T23:07:20.571Z,29.00
2019-02-27T23:09:50.430Z,29.93
2019-02-27T23:12:23.539Z,26.67
2019-02-27T23:14:55.148Z,32.77
2019-02-27T23:17:27.033Z,32.80
2019-02-27T23:19:58.702Z,27.80
2019-02-27T23:22:30.297Z,27.67
2019-02-27T23:25:01.883Z,29.73
2019-02-27T23:27:33.561Z,27.97
2019-02-27T23:30:05.614Z,25.27
2019-02-27T23:32:37.288Z,24.67
2019-02-27T23:35:08.978Z,27.37
2019-02-27T23:37:40.558Z,35.57
2019-02-27T23:40:17.155Z,28.77
2019-02-27T23:42:45.438Z,26.27
2019-02-27T23:45:17.089Z,28.97
2019-02-27T23:47:48.757Z,28.73
2019-02-27T23:50:20.353Z,24.77
2019-02-27T23:52:53.189Z,24.93
2019-02-27T23:55:25.505Z,26.27
2019-02-27T23:57:57.937Z,24.93
